Latest Coastal Weather Observations for Frederick Reef

IDQ60701

Issued at 4:25 pm EST Thursday 21 August 2014 (issued every 10 minutes, with the page automatically refreshed every 10 minutes)

About coastal observations | Map of coastal stations | Coastal observations for QLD | Marine services | Other Formats
Station Details ID: 200701 Name: FREDERICK REEF Lat: -20.94 Lon: 154.40 Height: 4.9 m
Data from the previous 72 hours. | See also: Recent months for locations in Queensland
Date/Time
EST
Temp

°C
Wind Pressure Rain
since 9am
mm
Weather Cloud Vis
km
Sea
Height
m
Swell
Dir
 
Speed
knots
Gust
knots
hPa Trend Height
m
Period
s
Dir
21/04:00pm 22.2 E 10 11 1016.2 - - - - - - - - -
21/03:30pm 21.9 E 9 12 1016.0 - - - - - - - - -
21/03:00pm 22.1 E 9 12 1015.9 - - - - - - - - -
21/02:30pm 22.0 E 10 12 1016.1 - - - - - - - - -
21/02:00pm 21.9 E 12 14 1016.1 - - - - - - - - -
21/01:30pm 21.9 E 11 13 1016.3 - - - - - - - - -
21/01:00pm 22.0 E 11 13 1016.8 - - - - - - - - -
21/12:30pm 22.1 E 10 12 1017.3 - - - - - - - - -
21/12:00pm 22.0 E 11 14 1017.6 - - - - - - - - -
21/11:30am 22.0 E 11 14 1018.1 - - - - - - - - -
21/11:00am 22.1 E 9 11 1018.7 - - - - - - - - -
21/10:30am 22.0 E 11 14 1018.8 - - - - - - - - -
21/10:00am 21.9 E 12 15 1019.0 - - - - - - - - -
21/09:30am 21.9 E 12 14 1018.9 - - - - - - - - -
21/09:00am 21.8 E 12 14 1019.2 - - - - - - - - -
21/08:30am 21.8 E 13 16 1019.0 - - - - - - - - -
21/08:00am 21.8 ESE 13 16 1018.6 - - - - - - - - -
21/07:30am 21.6 ESE 12 15 1018.0 - - - - - - - - -
21/07:00am 21.6 E 13 15 1017.7 - - - - - - - - -
21/06:30am 21.5 ESE 12 15 1017.3 - - - - - - - - -
21/06:00am 21.6 E 14 17 1017.1 - - - - - - - - -
21/05:30am 21.5 ESE 13 16 1016.5 - - - - - - - - -
21/05:00am 21.4 ESE 11 14 1016.5 - - - - - - - - -
21/04:30am 21.4 ESE 12 14 1016.2 - - - - - - - - -
21/04:00am 21.5 ESE 11 14 1015.9 - - - - - - - - -
21/03:30am 21.3 ESE 12 15 1015.7 - - - - - - - - -
21/03:00am 21.5 ESE 12 15 1016.1 - - - - - - - - -
21/02:30am 21.6 SE 11 14 1016.5 - - - - - - - - -
21/02:00am 21.4 SE 9 10 1016.7 - - - - - - - - -
21/01:30am 21.5 SE 9 13 1017.3 - - - - - - - - -
21/01:00am 21.7 SE 10 12 1017.2 - - - - - - - - -
21/12:30am 21.6 SE 10 12 1017.7 - - - - - - - - -
21/12:00am 21.7 ESE 9 12 1018.1 - - - - - - - - -
 
Date/Time
EST
Temp

°C
Wind Pressure Rain
since 9am
mm
Weather Cloud Vis
km
Sea
Height
m
Swell
Dir
 
Speed
knots
Gust
knots
hPa Trend Height
m
Period
s
Dir
20/11:30pm 21.6 ESE 9 12 1018.3 - - - - - - - - -
20/11:00pm 21.6 E 9 11 1018.7 - - - - - - - - -
20/10:30pm 21.6 E 10 12 1018.8 - - - - - - - - -
20/10:00pm 21.7 E 10 13 1019.1 - - - - - - - - -
20/09:30pm 21.8 ESE 9 11 1019.1 - - - - - - - - -
20/09:00pm 21.8 E 10 13 1019.3 - - - - - - - - -
20/08:30pm 21.8 ESE 10 12 1019.5 - - - - - - - - -
20/08:00pm 21.8 SE 11 12 1019.4 - - - - - - - - -
20/07:30pm 21.8 ESE 10 13 1019.1 - - - - - - - - -
20/07:00pm 21.9 SE 10 11 1018.9 - - - - - - - - -
20/06:30pm 21.6 SSE 11 13 1018.2 - - - - - - - - -
20/06:00pm 21.7 SE 11 13 1017.9 - - - - - - - - -
20/05:30pm 21.6 SE 9 13 1017.5 - - - - - - - - -
20/05:00pm 21.6 SE 11 13 1017.1 - - - - - - - - -
20/04:30pm 21.5 ESE 10 13 1016.7 - - - - - - - - -
20/04:00pm 21.5 SSE 10 13 1016.4 - - - - - - - - -
20/03:30pm 21.7 SE 11 15 1016.1 - - - - - - - - -
20/03:00pm 21.5 SSE 12 17 1015.8 - - - - - - - - -
20/02:30pm 21.5 SE 11 14 1015.6 - - - - - - - - -
20/02:00pm 21.3 SSE 12 14 1015.7 - - - - - - - - -
20/01:30pm 21.3 SSE 12 16 1015.8 - - - - - - - - -
20/01:00pm 21.2 SSE 11 13 1015.9 - - - - - - - - -
20/12:30pm 21.3 SSE 11 14 1016.5 - - - - - - - - -
20/12:00pm 21.4 SSE 11 16 1016.8 - - - - - - - - -
20/11:30am 21.2 SSE 12 15 1017.0 - - - - - - - - -
20/11:00am 21.2 S 12 14 1017.5 - - - - - - - - -
20/10:30am 21.1 S 14 18 1017.6 - - - - - - - - -
20/10:00am 21.1 S 14 17 1017.7 - - - - - - - - -
20/09:30am 21.1 S 11 13 1017.9 - - - - - - - - -
20/09:00am 20.7 SSE 13 15 1018.1 - - - - - - - - -
20/08:30am 20.6 SE 9 13 1018.3 - - - - - - - - -
20/08:00am 20.6 SE 10 12 1018.3 - - - - - - - - -
20/07:30am 20.4 SSE 10 11 1018.2 - - - - - - - - -
20/07:00am 20.4 S 9 12 1017.8 - - - - - - - - -
20/06:30am 20.2 S 8 10 1017.5 - - - - - - - - -
20/06:00am 20.2 S 10 13 1017.2 - - - - - - - - -
20/05:30am 20.1 S 12 15 1017.0 - - - - - - - - -
20/05:00am 20.3 SSW 8 12 1016.8 - - - - - - - - -
20/04:30am 20.3 SSW 10 15 1016.6 - - - - - - - - -
20/04:00am 20.4 SSW 10 13 1016.5 - - - - - - - - -
20/03:30am 20.3 S 11 14 1016.5 - - - - - - - - -
20/03:00am 20.4 SW 10 12 1016.5 - - - - - - - - -
20/02:30am 20.5 SSW 11 13 1016.5 - - - - - - - - -
20/02:00am 20.5 SW 10 12 1016.7 - - - - - - - - -
20/01:30am 20.5 SW 8 11 1017.0 - - - - - - - - -
20/01:00am 20.7 SSW 11 13 1016.9 - - - - - - - - -
20/12:30am 20.6 S 7 9 1017.1 - - - - - - - - -
20/12:00am 20.8 SSW 8 12 1017.3 - - - - - - - - -
 
Date/Time
EST
Temp

°C
Wind Pressure Rain
since 9am
mm
Weather Cloud Vis
km
Sea
Height
m
Swell
Dir
 
Speed
knots
Gust
knots
hPa Trend Height
m
Period
s
Dir
19/11:30pm 20.8 SSW 7 9 1017.3 - - - - - - - - -
19/11:00pm 20.9 SSW 8 10 1017.6 - - - - - - - - -
19/10:30pm 21.0 SSW 6 9 1017.7 - - - - - - - - -
19/10:00pm 21.2 SSW 6 8 1017.5 - - - - - - - - -
19/09:30pm 21.3 SSW 9 13 1017.1 - - - - - - - - -
19/09:00pm 21.4 S 8 11 1017.0 - - - - - - - - -
19/08:30pm 21.4 SW 9 11 1016.9 - - - - - - - - -
19/08:00pm 21.6 SW 7 11 1016.7 - - - - - - - - -
19/07:30pm 21.4 SW 7 10 1016.5 - - - - - - - - -
19/07:00pm 21.6 SW 9 14 1016.3 - - - - - - - - -
19/06:30pm 21.5 SW 9 11 1015.8 - - - - - - - - -
19/06:00pm 21.5 SW 10 13 1015.5 - - - - - - - - -
19/05:30pm 21.6 SW 9 14 1015.1 - - - - - - - - -
19/05:00pm 21.8 SW 9 11 1014.9 - - - - - - - - -
19/04:30pm 22.0 SW 9 11 1014.6 - - - - - - - - -
19/04:00pm 21.8 SW 9 13 1014.4 - - - - - - - - -
19/03:30pm 21.7 SW 10 11 1014.4 - - - - - - - - -
19/03:00pm 21.6 SW 11 15 1014.2 - - - - - - - - -
19/02:30pm 21.6 SSW 11 14 1014.3 - - - - - - - - -
19/02:00pm 21.5 SSW 11 13 1014.4 - - - - - - - - -
19/01:30pm 21.4 SW 12 14 1014.6 - - - - - - - - -
19/01:00pm 21.2 SW 13 14 1014.3 - - - - - - - - -
19/12:30pm 21.3 SW 11 15 1014.9 - - - - - - - - -
19/12:00pm 21.2 SW 12 16 1014.9 - - - - - - - - -
19/11:30am 21.1 SSW 11 14 1015.8 - - - - - - - - -
19/11:00am 21.0 SW 11 13 1015.8 - - - - - - - - -
19/10:30am 21.0 SW 11 13 1016.8 - - - - - - - - -
19/10:00am 21.0 SW 9 13 1016.9 - - - - - - - - -
19/09:30am 21.0 SSW 10 11 1017.5 - - - - - - - - -
19/09:00am 20.9 SW 11 13 1017.3 - - - - - - - - -
19/08:30am 20.9 SSW 7 9 1017.7 - - - - - - - - -
19/08:00am 20.8 SW 8 9 1017.4 - - - - - - - - -
19/07:30am 20.8 S 9 11 1017.5 - - - - - - - - -
19/07:00am 20.6 SW 10 13 1017.0 - - - - - - - - -
19/06:30am 20.6 SW 11 13 1016.9 - - - - - - - - -
19/06:00am 20.7 SW 11 16 1016.4 - - - - - - - - -
19/05:30am 20.5 SSW 13 16 1016.0 - - - - - - - - -
19/05:00am 20.7 SSW 12 16 1015.5 - - - - - - - - -
19/04:30am 20.5 SW 14 18 1015.5 - - - - - - - - -
19/04:00am 20.6 SSW 14 17 1015.1 - - - - - - - - -
19/03:30am 20.5 SW 15 20 1015.3 - - - - - - - - -
19/03:00am 20.6 SW 14 17 1015.0 - - - - - - - - -
19/02:30am 20.7 SW 13 17 1015.5 - - - - - - - - -
19/02:00am 20.8 WSW 13 16 1015.3 - - - - - - - - -
19/01:30am 20.7 WSW 13 16 1015.6 - - - - - - - - -
19/01:00am 20.6 WSW 14 16 1015.5 - - - - - - - - -
19/12:30am 20.5 WSW 14 16 1016.0 - - - - - - - - -
19/12:00am 20.5 WSW 14 16 1015.8 - - - - - - - - -
 
Date/Time
EST
Temp

°C
Wind Pressure Rain
since 9am
mm
Weather Cloud Vis
km
Sea
Height
m
Swell
Dir
 
Speed
knots
Gust
knots
hPa Trend Height
m
Period
s
Dir
18/11:30pm 20.8 W 13 17 1016.1 - - - - - - - - -
18/11:00pm 20.7 W 12 16 1015.9 - - - - - - - - -
18/10:30pm 20.6 W 12 14 1016.2 - - - - - - - - -
18/10:00pm 20.7 W 11 14 1015.9 - - - - - - - - -
18/09:30pm 20.9 W 10 12 1016.1 - - - - - - - - -
18/09:00pm 20.9 W 11 13 1015.6 - - - - - - - - -
18/08:30pm 20.8 W 9 11 1015.8 - - - - - - - - -
18/08:00pm 20.8 W 9 11 1015.5 - - - - - - - - -
18/07:30pm 20.8 WSW 8 10 1015.5 - - - - - - - - -
18/07:00pm 20.9 WSW 9 13 1014.9 - - - - - - - - -
18/06:30pm 21.0 W 10 13 1014.8 - - - - - - - - -
18/06:00pm 21.0 W 10 13 1014.2 - - - - - - - - -
18/05:30pm 21.1 WSW 10 13 1014.3 - - - - - - - - -
18/05:00pm 21.3 WSW 11 14 1013.9 - - - - - - - - -
18/04:30pm 21.6 WSW 12 15 1013.9 - - - - - - - - -

Other Formats:

Comma delimited format used in spreadsheet applications
http://www.bom.gov.au/fwo/IDQ60701/IDQ60701.94393.axf

JavaScript Object Notation format (JSON) in row-major order
http://www.bom.gov.au/fwo/IDQ60701/IDQ60701.94393.json